BZO weather

Bolzano Airport
Bolzano, Trentino-Alto Adige, Italy

Public forecast

Using degrees Celsius for public forecast. Weather courtesy of forecast.io.

Current aviation weather report (METAR) for Bolzano Airport

Retrieved 2019/10/21 13:50 UTC (40 minutes ago):

LIPB 211350Z VRB02KT 9999 FEW025 SCT060 20/15 Q1023 RMK MON CLD SCT

Aviation forecast (TAF) for Bolzano Airport

Retrieved 2019/10/21 12:22 UTC (2 hours ago):

TAF LIPB 211100Z 2112/2212 VRB05KT 9999 SCT030 TEMPO 2112/2118 SHRA